This is the latest recevied weather packets stored in our database for station/object F6JSP-13. If no packets are shown the sender has not sent any weather packets the latest 10 day(s).
| Time | Temp. | Humidity | Pressure | Rain* | Wind** | Luminosity | Snow |
|---|---|---|---|---|---|---|---|
| 1777911007 | 17.22° C | 77% | 1008.7 hPa | 0 mm | - | 119 W/m² | - |
| 1777909505 | 17.22° C | 75% | 1008.8 hPa | 0 mm | - | 88 W/m² | - |
| 1777906806 | 17.78° C | 71% | 1008.8 hPa | 0 mm | - | 280 W/m² | - |
| 1777905305 | 17.78° C | 68% | 1009 hPa | 0 mm | - | 712 W/m² | - |
| 1777903205 | 17.22° C | 67% | 1009.4 hPa | 0 mm | - | 428 W/m² | - |
| 1777902005 | 16.67° C | 71% | 1009.6 hPa | 0 mm | - | 443 W/m² | - |
| 1777899606 | 16.11° C | 77% | 1009.5 hPa | 0 mm | - | 229 W/m² | - |
| 1777899005 | 16.11° C | 80% | 1009.4 hPa | 0 mm | - | 198 W/m² | - |
| 1777897805 | 16.11° C | 80% | 1009.5 hPa | 0 mm | - | 192 W/m² | - |
| 1777896005 | 16.67° C | 75% | 1009.4 hPa | 0 mm | - | 264 W/m² | - |
| 1777884606 | 15° C | 83% | 1010.2 hPa | 0 mm | - | 336 W/m² | - |
| 1777881906 | 13.33° C | 90% | 1009.8 hPa | 0 mm | - | 331 W/m² | - |
| 1777881306 | 12.78° C | 93% | 1010 hPa | 0 mm | - | 322 W/m² | - |
| 1777880406 | 12.22° C | 97% | 1010 hPa | 0 mm | - | 185 W/m² | - |
| 1777879206 | 11.67° C | 99% | 1009.6 hPa | 0 mm | - | 132 W/m² | - |
| 1777878306 | 11.67° C | 99% | 1009.5 hPa | 0 mm | - | 104 W/m² | - |
| 1777876806 | 11.11° C | 99% | 1009.4 hPa | 0 mm | - | 69 W/m² | - |
| 1777875305 | 10.56° C | 99% | 1009.4 hPa | 0 mm | - | 42 W/m² | - |
| 1777872606 | 10.56° C | 99% | 1009.4 hPa | 0 mm | - | 32 W/m² | - |
| 1777870805 | 10° C | 99% | 1009.3 hPa | 0 mm | - | 10 W/m² | - |
| 1777870505 | 10° C | 99% | 1009.1 hPa | 0 mm | - | 6 W/m² | - |
| 1777864805 | 10.56° C | 98% | 1009.6 hPa | 0 mm | - | 0 W/m² | - |
| 1777863605 | 10.56° C | 98% | 1009.3 hPa | 0 mm | - | 0 W/m² | - |
| 1777863305 | 10.56° C | 97% | 1009.4 hPa | 0 mm | - | 0 W/m² | - |
| 1777862104 | 11.11° C | 97% | 1009.4 hPa | 0 mm | - | 0 W/m² | - |
* Rain latest hour (hover to see other rain measurements)
** Current wind speed in m/s (hover to see current wind gust speed)